createdAt,value
2022-09-21T00:01:49.891Z,97267.44
2022-09-21T00:04:47.698Z,97295.16
2022-09-21T00:07:15.911Z,97321.84
2022-09-21T00:09:44.108Z,97383.94
2022-09-21T00:12:12.560Z,97320.66
2022-09-21T00:14:40.766Z,97318.28
2022-09-21T00:17:10.720Z,97345.28
2022-09-21T00:19:38.923Z,97370.41
2022-09-21T00:22:07.388Z,97318.34
2022-09-21T00:24:35.825Z,97411.81
2022-09-21T00:27:04.013Z,97330.13
2022-09-21T00:29:32.219Z,97364.25
2022-09-21T00:32:00.503Z,97315.25
2022-09-21T00:34:30.331Z,97369.84
2022-09-21T00:36:58.881Z,97322.63
2022-09-21T00:39:27.154Z,97118.44
2022-09-21T00:41:55.304Z,97357.38
2022-09-21T00:44:31.801Z,97334.09
2022-09-21T00:47:07.936Z,97320.63
2022-09-21T00:49:40.173Z,97360.47
2022-09-21T00:52:09.432Z,97350.84
2022-09-21T00:54:43.518Z,97341.22
2022-09-21T00:57:12.454Z,97342.03
2022-09-21T00:59:41.725Z,97339.81
2022-09-21T01:02:10.025Z,97340.72
2022-09-21T01:04:40.907Z,97362.34
2022-09-21T01:07:14.694Z,97314.81
2022-09-21T01:09:44.850Z,97349.38
2022-09-21T01:12:30.360Z,97384.09
2022-09-21T01:15:20.982Z,97348.09
2022-09-21T01:18:00.301Z,97372.13
2022-09-21T01:21:30.231Z,97280.34
2022-09-21T01:24:17.942Z,97341.41
2022-09-21T01:27:13.908Z,97387.91
2022-09-21T01:29:50.337Z,97352.63
2022-09-21T01:32:24.064Z,97325.75
2022-09-21T01:34:57.359Z,97301.75
2022-09-21T01:37:34.050Z,97322.91
2022-09-21T01:40:11.438Z,97341.66
2022-09-21T01:42:42.348Z,97393.47
2022-09-21T01:45:17.290Z,97366.50
2022-09-21T01:47:49.918Z,97383.38
2022-09-21T01:50:26.976Z,97326.97
2022-09-21T01:53:02.272Z,97356.41
2022-09-21T01:55:35.980Z,97371.75
2022-09-21T01:58:13.106Z,97304.84
2022-09-21T02:00:46.042Z,97354.97
2022-09-21T02:03:20.848Z,97393.47
2022-09-21T02:05:49.153Z,97331.47
2022-09-21T02:08:18.065Z,97367.69
2022-09-21T02:10:50.998Z,97369.47
2022-09-21T02:13:20.858Z,97382.38
2022-09-21T02:16:21.015Z,97301.28
2022-09-21T02:19:07.645Z,97346.78
2022-09-21T02:21:58.501Z,97384.63
2022-09-21T02:24:39.307Z,97434.97
2022-09-21T02:27:15.044Z,97293.06
2022-09-21T02:29:51.673Z,97325.69
2022-09-21T02:32:37.235Z,97340.78
2022-09-21T02:35:15.025Z,97297.25
2022-09-21T02:37:49.047Z,97340.03
2022-09-21T02:40:27.575Z,97364.66
2022-09-21T02:43:00.933Z,97354.47
2022-09-21T02:45:34.746Z,97328.56
2022-09-21T02:48:09.104Z,97358.00
2022-09-21T02:50:43.804Z,97375.56
2022-09-21T02:53:14.752Z,97324.16
2022-09-21T02:55:45.327Z,97362.25
2022-09-21T02:58:17.916Z,97350.19
2022-09-21T03:00:46.401Z,97368.09
2022-09-21T03:03:22.341Z,97323.78
2022-09-21T03:05:54.292Z,97377.13
2022-09-21T03:08:23.271Z,97357.25
2022-09-21T03:10:51.956Z,97338.25
2022-09-21T03:13:20.184Z,97393.38
2022-09-21T03:15:49.068Z,97370.66
2022-09-21T03:18:17.395Z,97370.16
2022-09-21T03:20:47.114Z,97356.88
2022-09-21T03:23:15.766Z,97364.16
2022-09-21T03:25:46.120Z,97308.38
2022-09-21T03:28:15.082Z,97385.75
2022-09-21T03:30:44.401Z,97370.81
2022-09-21T03:33:13.721Z,97324.00
2022-09-21T03:35:42.143Z,97314.28
2022-09-21T03:38:11.704Z,97350.75
2022-09-21T03:40:39.928Z,97388.63
2022-09-21T03:43:08.214Z,97388.91
2022-09-21T03:45:37.995Z,97365.00
2022-09-21T03:48:06.191Z,97380.56
2022-09-21T03:50:34.564Z,97352.34
2022-09-21T03:53:02.751Z,97384.28
2022-09-21T03:55:33.213Z,97418.44
2022-09-21T03:58:01.472Z,97400.72
2022-09-21T04:00:30.947Z,97390.66
2022-09-21T04:03:00.076Z,97355.84
2022-09-21T04:05:28.791Z,97376.03
2022-09-21T04:07:57.695Z,97394.50
2022-09-21T04:10:29.256Z,97399.72
2022-09-21T04:13:02.158Z,97374.59
2022-09-21T04:15:31.351Z,97403.22
2022-09-21T04:17:59.690Z,97380.94
2022-09-21T04:20:28.194Z,97402.66
2022-09-21T04:22:56.420Z,97395.94
2022-09-21T04:25:24.699Z,97405.91
2022-09-21T04:27:52.995Z,97381.78
2022-09-21T04:30:22.570Z,97358.28
2022-09-21T04:32:50.731Z,97439.47
2022-09-21T04:35:18.968Z,97394.56
2022-09-21T04:37:47.159Z,97317.25
2022-09-21T04:40:15.835Z,97357.19
2022-09-21T04:42:44.137Z,97330.59
2022-09-21T04:45:12.949Z,97449.09
2022-09-21T04:47:42.612Z,97386.88
2022-09-21T04:50:11.338Z,97422.00
2022-09-21T04:52:40.084Z,97395.84
2022-09-21T04:55:09.607Z,97423.19
2022-09-21T04:57:37.944Z,97376.41
2022-09-21T05:00:07.854Z,97392.69
2022-09-21T05:02:36.071Z,97392.75
2022-09-21T05:05:06.807Z,97439.06
2022-09-21T05:07:34.971Z,97351.66
2022-09-21T05:10:05.233Z,97417.50
2022-09-21T05:12:38.526Z,97365.53
2022-09-21T05:15:09.759Z,97419.69
2022-09-21T05:17:38.096Z,97419.03
2022-09-21T05:20:09.026Z,97413.44
2022-09-21T05:22:37.375Z,97433.44
2022-09-21T05:25:07.041Z,97434.16
2022-09-21T05:27:35.223Z,97408.28
2022-09-21T05:30:04.462Z,97440.91
2022-09-21T05:32:46.153Z,97414.47
2022-09-21T05:35:27.430Z,97446.63
2022-09-21T05:38:02.464Z,97422.06
2022-09-21T05:40:31.568Z,97387.41
2022-09-21T05:43:00.713Z,97393.28
2022-09-21T05:45:29.964Z,97447.16
2022-09-21T05:48:13.155Z,97459.47
2022-09-21T05:51:04.432Z,97444.53
2022-09-21T05:53:50.541Z,97450.66
2022-09-21T05:56:42.650Z,97413.84
2022-09-21T05:59:36.780Z,97424.13
2022-09-21T06:02:17.924Z,97395.63
2022-09-21T06:04:47.789Z,97457.59
2022-09-21T06:07:17.359Z,97465.53
2022-09-21T06:09:45.577Z,97433.84
2022-09-21T06:12:13.816Z,97436.06
2022-09-21T06:14:42.437Z,97454.69
2022-09-21T06:17:10.726Z,97489.13
2022-09-21T06:19:39.028Z,97437.25
2022-09-21T06:22:07.205Z,97452.72
2022-09-21T06:24:36.778Z,97410.47
2022-09-21T06:27:05.320Z,97442.28
2022-09-21T06:29:33.499Z,97404.13
2022-09-21T06:32:03.468Z,97433.53
2022-09-21T06:34:32.016Z,97426.84
2022-09-21T06:37:00.192Z,97462.50
2022-09-21T06:39:28.739Z,97411.50
2022-09-21T06:41:59.482Z,97457.59
2022-09-21T06:44:29.842Z,97423.72
2022-09-21T06:46:58.021Z,97424.22
2022-09-21T06:49:28.659Z,97413.97
2022-09-21T06:51:57.127Z,97432.66
2022-09-21T06:54:25.615Z,97461.22
2022-09-21T06:56:56.841Z,97393.72
2022-09-21T06:59:29.422Z,97427.50
2022-09-21T07:01:58.558Z,97433.00
2022-09-21T07:04:29.431Z,97464.66
2022-09-21T07:06:57.945Z,97452.50
2022-09-21T07:12:15.074Z,97430.13
2022-09-21T07:14:45.627Z,97451.25
2022-09-21T07:17:16.005Z,97456.06
2022-09-21T07:19:44.385Z,97504.47
2022-09-21T07:22:12.582Z,97555.19
2022-09-21T07:24:41.099Z,97470.97
2022-09-21T07:27:09.673Z,97467.34
2022-09-21T07:29:37.852Z,97459.38
2022-09-21T07:32:07.482Z,97404.66
2022-09-21T07:34:37.875Z,97458.69
2022-09-21T07:37:06.397Z,97455.31
2022-09-21T07:39:35.523Z,97396.53
2022-09-21T07:42:03.747Z,97445.34
2022-09-21T07:44:31.908Z,97521.38
2022-09-21T07:47:00.336Z,97348.50
2022-09-21T07:49:32.115Z,97406.19
2022-09-21T07:52:04.473Z,97432.22
2022-09-21T07:54:34.511Z,97454.78
2022-09-21T07:57:20.278Z,97452.19
2022-09-21T07:59:48.582Z,97433.59
2022-09-21T08:02:16.788Z,97416.28
2022-09-21T08:04:46.707Z,97426.03
2022-09-21T08:07:14.952Z,97462.28
2022-09-21T08:09:43.152Z,97317.09
2022-09-21T08:12:12.129Z,97404.63
2022-09-21T08:14:40.652Z,97626.72
2022-09-21T08:17:08.987Z,97444.94
2022-09-21T08:19:37.157Z,97398.22
2022-09-21T08:22:07.221Z,97449.75
2022-09-21T08:24:36.743Z,97449.38
2022-09-21T08:27:05.498Z,97420.69
2022-09-21T08:29:33.681Z,97436.78
2022-09-21T08:32:02.792Z,97482.50
2022-09-21T08:34:31.009Z,97448.22
2022-09-21T08:36:59.163Z,97438.94
2022-09-21T08:39:29.084Z,97462.53
2022-09-21T08:42:14.518Z,97447.94
2022-09-21T08:44:45.988Z,97464.75
2022-09-21T08:47:18.553Z,97383.25
2022-09-21T08:49:52.850Z,97437.44
2022-09-21T08:52:22.856Z,97467.28
2022-09-21T08:54:57.926Z,97405.94
2022-09-21T08:57:31.093Z,97427.28
2022-09-21T09:00:01.883Z,97441.38
2022-09-21T09:02:51.607Z,97415.44
2022-09-21T09:05:38.475Z,97472.03
2022-09-21T09:08:26.630Z,97373.81
2022-09-21T09:11:12.478Z,97434.72
2022-09-21T09:14:17.070Z,97432.72
2022-09-21T09:16:54.889Z,97409.22
2022-09-21T09:19:29.234Z,97430.59
2022-09-21T09:21:58.120Z,97452.75
2022-09-21T09:24:36.703Z,97434.56
2022-09-21T09:27:15.309Z,97418.84
2022-09-21T09:29:52.717Z,97451.91
2022-09-21T09:32:25.560Z,97419.50
2022-09-21T09:35:00.398Z,97426.09
2022-09-21T09:37:35.560Z,97451.56
2022-09-21T09:40:04.574Z,97431.38
2022-09-21T09:42:52.821Z,97432.00
2022-09-21T09:45:43.771Z,97448.22
2022-09-21T09:48:39.341Z,97416.75
2022-09-21T09:51:13.114Z,97264.28
2022-09-21T09:53:41.657Z,97446.22
2022-09-21T09:56:11.987Z,97066.81
2022-09-21T09:58:49.620Z,97411.19
2022-09-21T10:01:38.577Z,97407.75
2022-09-21T10:04:12.027Z,97371.88
2022-09-21T10:06:46.053Z,97262.59
2022-09-21T10:09:26.809Z,97403.63
2022-09-21T10:12:00.135Z,97418.50
2022-09-21T10:14:34.660Z,97418.81
2022-09-21T10:17:07.900Z,97402.03
2022-09-21T10:19:38.163Z,97412.53
2022-09-21T10:22:06.862Z,97374.31
2022-09-21T10:24:38.951Z,97370.38
2022-09-21T10:27:14.532Z,97390.25
2022-09-21T10:29:46.737Z,97342.03
2022-09-21T10:32:26.089Z,97403.19
2022-09-21T10:35:22.279Z,97399.56
2022-09-21T10:38:10.030Z,97384.63
2022-09-21T10:40:39.817Z,97392.06
2022-09-21T10:43:24.209Z,97374.38
2022-09-21T10:45:58.622Z,97421.19
2022-09-21T10:48:28.695Z,97364.50
2022-09-21T10:50:58.152Z,97396.84
2022-09-21T10:53:29.848Z,97394.06
2022-09-21T10:56:18.365Z,97375.72
2022-09-21T10:59:12.385Z,97391.50
2022-09-21T11:01:46.926Z,97295.13
2022-09-21T11:04:23.951Z,97354.97
2022-09-21T11:06:56.436Z,97374.44
2022-09-21T11:09:31.047Z,97304.09
2022-09-21T11:12:07.496Z,97350.94
2022-09-21T11:14:47.117Z,97396.25
2022-09-21T11:17:27.183Z,97410.16
2022-09-21T11:20:09.740Z,97410.59
2022-09-21T11:22:46.854Z,97459.03
2022-09-21T11:25:32.420Z,97357.38
2022-09-21T11:28:13.382Z,97370.53
2022-09-21T11:31:19.821Z,97352.97
2022-09-21T11:34:25.065Z,97329.91
2022-09-21T11:37:08.501Z,97330.47
2022-09-21T11:39:54.069Z,97385.75
2022-09-21T11:42:49.977Z,97353.41
2022-09-21T11:45:50.259Z,97269.94
2022-09-21T11:48:33.937Z,97342.94
2022-09-21T11:51:17.310Z,97357.19
2022-09-21T11:54:13.282Z,97326.56
2022-09-21T11:56:50.300Z,97339.56
2022-09-21T11:59:40.172Z,97361.06
2022-09-21T12:02:52.234Z,97332.41
2022-09-21T12:05:35.470Z,97365.81
2022-09-21T12:08:35.782Z,97290.66
2022-09-21T12:11:12.627Z,97341.38
2022-09-21T12:13:51.824Z,97318.69
2022-09-21T12:16:29.911Z,97311.13
2022-09-21T12:19:09.588Z,97288.47
2022-09-21T12:21:44.147Z,97248.88
2022-09-21T12:24:21.962Z,97386.81
2022-09-21T12:26:55.591Z,97344.97
2022-09-21T12:29:28.557Z,97344.53
2022-09-21T12:32:04.375Z,97326.22
2022-09-21T12:34:42.692Z,97359.22
2022-09-21T12:37:17.190Z,97342.41
2022-09-21T12:39:53.130Z,97320.00
2022-09-21T12:42:31.405Z,97290.38
2022-09-21T12:45:05.151Z,97304.38
2022-09-21T12:47:50.052Z,97253.53
2022-09-21T12:50:25.182Z,97287.66
2022-09-21T12:52:54.778Z,97345.06
2022-09-21T12:55:44.469Z,97299.19
2022-09-21T12:58:44.121Z,97329.00
2022-09-21T13:01:30.978Z,97315.97
2022-09-21T13:04:26.548Z,97225.00
2022-09-21T13:07:32.798Z,97306.34
2022-09-21T13:10:13.415Z,97324.91
2022-09-21T13:12:46.738Z,97268.97
2022-09-21T13:15:24.180Z,97236.31
2022-09-21T13:18:01.097Z,97330.63
2022-09-21T13:20:35.823Z,97237.53
2022-09-21T13:23:04.748Z,97304.22
2022-09-21T13:25:37.521Z,97325.19
2022-09-21T13:28:24.140Z,97343.78
2022-09-21T13:31:41.511Z,97323.72
2022-09-21T13:34:30.230Z,97319.81
2022-09-21T13:37:31.799Z,97293.75
2022-09-21T13:40:42.449Z,97336.59
2022-09-21T13:43:25.855Z,97290.13
2022-09-21T13:45:59.081Z,97292.00
2022-09-21T13:48:33.941Z,97291.22
2022-09-21T13:51:08.702Z,97316.25
2022-09-21T13:53:41.977Z,97257.72
2022-09-21T13:56:22.824Z,97208.81
2022-09-21T13:58:57.279Z,97229.53
2022-09-21T14:01:52.469Z,97264.44
2022-09-21T14:04:27.955Z,97288.47
2022-09-21T14:07:08.018Z,97302.69
2022-09-21T14:09:55.035Z,97274.34
2022-09-21T14:12:26.908Z,97263.44
2022-09-21T14:15:36.751Z,97297.63
2022-09-21T14:18:47.581Z,97265.81
2022-09-21T14:21:18.932Z,97226.13
2022-09-21T14:24:21.173Z,97249.25
2022-09-21T14:27:01.474Z,97280.00
2022-09-21T14:29:40.596Z,97203.81
2022-09-21T14:32:19.192Z,97248.25
2022-09-21T14:34:49.718Z,97213.09
2022-09-21T14:37:31.771Z,97249.09
2022-09-21T14:40:05.833Z,97297.72
2022-09-21T14:42:34.509Z,97284.97
2022-09-21T14:45:04.506Z,97266.63
2022-09-21T14:48:02.662Z,97258.88
2022-09-21T14:50:36.079Z,97272.91
2022-09-21T14:53:29.791Z,97281.75
2022-09-21T14:56:21.942Z,97209.63
2022-09-21T14:59:07.792Z,97307.97
2022-09-21T15:01:42.068Z,97222.50
2022-09-21T15:04:46.033Z,97204.09
2022-09-21T15:07:57.767Z,97240.22
2022-09-21T15:10:49.698Z,97285.69
2022-09-21T15:13:45.744Z,97219.84
2022-09-21T15:16:38.446Z,97262.72
2022-09-21T15:19:17.358Z,97184.94
2022-09-21T15:21:49.028Z,97247.38
2022-09-21T15:24:31.773Z,97245.75
2022-09-21T15:27:10.265Z,97183.28
2022-09-21T15:29:40.194Z,97236.91
2022-09-21T15:32:09.010Z,97167.84
2022-09-21T15:34:37.541Z,97256.78
2022-09-21T15:37:18.065Z,97221.56
2022-09-21T15:39:46.289Z,97197.31
2022-09-21T15:42:23.557Z,97203.72
2022-09-21T15:45:06.059Z,97199.91
2022-09-21T15:47:34.712Z,97186.06
2022-09-21T15:50:03.247Z,97199.47
2022-09-21T15:52:37.845Z,97180.94
2022-09-21T15:55:14.929Z,97195.06
2022-09-21T15:57:44.579Z,97190.00
2022-09-21T16:00:24.258Z,97194.44
2022-09-21T16:03:07.372Z,97228.81
2022-09-21T16:06:02.353Z,97226.22
2022-09-21T16:08:35.715Z,97214.84
2022-09-21T16:11:17.059Z,97201.00
2022-09-21T16:14:04.925Z,97241.66
2022-09-21T16:16:33.405Z,97227.91
2022-09-21T16:19:01.669Z,97220.28
2022-09-21T16:21:33.621Z,97198.16
2022-09-21T16:24:13.694Z,97164.94
2022-09-21T16:26:42.653Z,97174.81
2022-09-21T16:29:25.590Z,97178.28
2022-09-21T16:32:31.704Z,97263.06
2022-09-21T16:35:27.977Z,97242.28
2022-09-21T16:37:57.542Z,97201.59
2022-09-21T16:40:29.470Z,97212.28
2022-09-21T16:42:58.884Z,97182.06
2022-09-21T16:45:31.770Z,97267.19
2022-09-21T16:48:00.478Z,97232.94
2022-09-21T16:50:28.782Z,97196.28
2022-09-21T16:53:02.930Z,97213.34
2022-09-21T16:55:32.915Z,97253.00
2022-09-21T16:58:01.243Z,97266.44
2022-09-21T17:00:32.929Z,97275.59
2022-09-21T17:03:02.263Z,97229.03
2022-09-21T17:05:30.478Z,97211.09
2022-09-21T17:08:00.397Z,97228.00
2022-09-21T17:10:34.597Z,97216.88
2022-09-21T17:13:04.438Z,97275.25
2022-09-21T17:15:33.833Z,97247.72
2022-09-21T17:18:02.184Z,97226.19
2022-09-21T17:20:41.694Z,97206.63
2022-09-21T17:23:10.824Z,97225.69
2022-09-21T17:25:40.365Z,97087.00
2022-09-21T17:28:16.206Z,97275.72
2022-09-21T17:30:46.441Z,97212.66
2022-09-21T17:33:15.155Z,97187.69
2022-09-21T17:35:44.845Z,97203.88
2022-09-21T17:38:14.662Z,97234.06
2022-09-21T17:40:45.640Z,97280.66
2022-09-21T17:43:35.542Z,97259.28
2022-09-21T17:46:11.387Z,97219.91
2022-09-21T17:48:41.681Z,97223.44
2022-09-21T17:51:11.836Z,97255.38
2022-09-21T17:53:41.688Z,97254.25
2022-09-21T17:56:26.573Z,97272.75
2022-09-21T17:59:02.091Z,97295.41
2022-09-21T18:01:34.866Z,97298.53
2022-09-21T18:04:08.699Z,97269.59
2022-09-21T18:06:37.806Z,97266.25
2022-09-21T18:09:07.720Z,97287.88
2022-09-21T18:12:48.270Z,97274.31
2022-09-21T18:15:24.007Z,97348.88
2022-09-21T18:18:09.597Z,97278.94
2022-09-21T18:20:51.149Z,97284.22
2022-09-21T18:23:27.716Z,97233.31
2022-09-21T18:25:57.897Z,97275.97
2022-09-21T18:28:40.272Z,97306.44
2022-09-21T18:31:42.056Z,97260.50
2022-09-21T18:34:34.726Z,97271.69
2022-09-21T18:37:13.121Z,97277.50
2022-09-21T18:39:52.946Z,97311.84
2022-09-21T18:42:40.143Z,97274.38
2022-09-21T18:45:17.206Z,97294.63
2022-09-21T18:47:59.369Z,97276.78
2022-09-21T18:50:36.057Z,97265.50
2022-09-21T18:53:15.918Z,97270.66
2022-09-21T18:55:45.170Z,97328.06
2022-09-21T18:58:13.836Z,97268.72
2022-09-21T19:00:44.240Z,97324.09
2022-09-21T19:03:18.158Z,97283.50
2022-09-21T19:06:02.729Z,97300.22
2022-09-21T19:08:43.449Z,97361.25
2022-09-21T19:11:19.696Z,97317.31
2022-09-21T19:13:56.090Z,97287.66
2022-09-21T19:16:35.125Z,97347.31
2022-09-21T19:19:18.985Z,97307.31
2022-09-21T19:21:56.463Z,97324.91
2022-09-21T19:24:32.929Z,97271.41
2022-09-21T19:27:21.206Z,97087.78
2022-09-21T19:30:01.645Z,97343.50
2022-09-21T19:32:38.189Z,97316.38
2022-09-21T19:35:23.385Z,97294.94
2022-09-21T19:37:53.816Z,97300.66
2022-09-21T19:40:26.953Z,97331.44
2022-09-21T19:43:10.126Z,97313.69
2022-09-21T19:45:50.363Z,97307.72
2022-09-21T19:48:24.017Z,97295.44
2022-09-21T19:50:57.191Z,97301.94
2022-09-21T19:53:44.244Z,97337.72
2022-09-21T19:56:45.185Z,97315.81
2022-09-21T19:59:31.744Z,97268.53
2022-09-21T20:02:28.108Z,97299.53
2022-09-21T20:05:06.162Z,97281.44
2022-09-21T20:07:45.171Z,97313.28
2022-09-21T20:10:40.882Z,97321.88
2022-09-21T20:13:21.831Z,97289.81
2022-09-21T20:15:57.450Z,97289.75
2022-09-21T20:18:32.387Z,97289.75
2022-09-21T20:21:02.554Z,97297.75
2022-09-21T20:23:32.236Z,97336.78
2022-09-21T20:26:07.174Z,97261.50
2022-09-21T20:28:36.111Z,97312.22
2022-09-21T20:31:05.235Z,97267.88
2022-09-21T20:33:33.461Z,97253.66
2022-09-21T20:36:03.522Z,97321.63
2022-09-21T20:38:32.191Z,97306.13
2022-09-21T20:41:00.765Z,97315.03
2022-09-21T20:43:32.485Z,97331.28
2022-09-21T20:46:03.509Z,97346.22
2022-09-21T20:48:31.797Z,97309.31
2022-09-21T20:51:06.105Z,97304.63
2022-09-21T20:53:34.975Z,97323.53
2022-09-21T20:56:04.305Z,97312.59
2022-09-21T20:58:35.374Z,97335.09
2022-09-21T21:01:08.600Z,97344.81
2022-09-21T21:03:36.978Z,97337.75
2022-09-21T21:06:11.464Z,97308.84
2022-09-21T21:08:39.675Z,97326.28
2022-09-21T21:11:08.025Z,97370.81
2022-09-21T21:13:36.273Z,97324.59
2022-09-21T21:16:09.463Z,97342.59
2022-09-21T21:18:41.029Z,97318.28
2022-09-21T21:21:10.752Z,97329.03
2022-09-21T21:23:53.205Z,97204.59
2022-09-21T21:26:33.320Z,97338.03
2022-09-21T21:29:06.880Z,97323.78
2022-09-21T21:31:35.158Z,97348.25
2022-09-21T21:34:03.359Z,97351.44
2022-09-21T21:36:32.914Z,97339.56
2022-09-21T21:39:01.152Z,97363.06
2022-09-21T21:41:31.147Z,97333.44
2022-09-21T21:43:59.469Z,97305.50
2022-09-21T21:46:27.911Z,97328.13
2022-09-21T21:48:56.361Z,97284.28
2022-09-21T21:51:24.622Z,97313.66
2022-09-21T21:53:54.127Z,97434.94
2022-09-21T21:56:23.306Z,97314.28
2022-09-21T21:58:54.113Z,97281.38
2022-09-21T22:01:25.242Z,97324.09
2022-09-21T22:04:03.323Z,97279.63
2022-09-21T22:06:35.366Z,97299.50
2022-09-21T22:09:07.404Z,97303.78
2022-09-21T22:11:36.777Z,97305.72
2022-09-21T22:14:06.996Z,97311.19
2022-09-21T22:16:37.898Z,97318.97
2022-09-21T22:19:08.254Z,97330.41
2022-09-21T22:21:42.373Z,97318.72
2022-09-21T22:24:12.311Z,97298.47
2022-09-21T22:26:42.846Z,97348.34
2022-09-21T22:29:14.199Z,97313.69
2022-09-21T22:31:45.619Z,97319.25
2022-09-21T22:34:14.861Z,97304.16
2022-09-21T22:36:44.366Z,97264.13
2022-09-21T22:39:14.148Z,97262.56
2022-09-21T22:41:43.780Z,97274.50
2022-09-21T22:44:12.500Z,97314.19
2022-09-21T22:46:46.977Z,97343.47
2022-09-21T22:49:15.127Z,97303.41
2022-09-21T22:51:43.270Z,97312.09
2022-09-21T22:54:12.803Z,97320.63
2022-09-21T22:56:40.980Z,97311.06
2022-09-21T22:59:09.611Z,97229.00
2022-09-21T23:01:39.642Z,97306.97
2022-09-21T23:04:10.548Z,97323.59
2022-09-21T23:06:41.514Z,97314.13
2022-09-21T23:09:16.519Z,97271.44
2022-09-21T23:11:47.948Z,97249.09
2022-09-21T23:14:17.648Z,97294.44
2022-09-21T23:16:46.635Z,97267.47
2022-09-21T23:19:16.404Z,97300.41
2022-09-21T23:21:46.663Z,97305.94
2022-09-21T23:24:16.686Z,97294.44
2022-09-21T23:26:45.599Z,97315.78
2022-09-21T23:29:16.011Z,97224.78
2022-09-21T23:31:45.993Z,97273.84
2022-09-21T23:34:16.631Z,97288.31
2022-09-21T23:36:45.756Z,97307.63
2022-09-21T23:39:16.763Z,97588.88
2022-09-21T23:41:45.410Z,97285.88
2022-09-21T23:44:13.869Z,97319.31
2022-09-21T23:46:42.458Z,97233.97
2022-09-21T23:49:11.243Z,97219.50
2022-09-21T23:51:39.670Z,97265.13
2022-09-21T23:54:10.974Z,97253.72
2022-09-21T23:56:43.656Z,97280.69
2022-09-21T23:59:11.874Z,97362.25
